Time;durP1;ratioP1;P1;durP2;ratioP2;P2;SDS_P1;SDS_P2;PMS_P1;PMS_P2;Temp;Humidity;BMP_temperature;BMP_pressure;BME280_temperature;BME280_humidity;BME280_pressure;Samples;Min_cycle;Max_cycle;Signal;HPM_P1;HPM_P2
2023/10/24 00:01:48;1686493.00;5.62;2999.21;25975.00;0.09;45.62;;;;;17.80;1.00;;;;;;2340051;40;3807;-88
2023/10/24 00:29:41;895725.00;2.99;1548.61;0.00;0.00;0.62;;;;;18.00;1.00;;;;;;2330423;40;3481;-91
2023/10/24 01:10:01;732074.00;2.44;1262.90;0.00;0.00;0.62;;;;;17.20;1.00;;;;;;2277441;61;1272;-87
2023/10/24 01:12:28;235358.00;0.78;406.77;0.00;0.00;0.62;;;;;17.00;1.00;;;;;;2357202;40;3605;-86
2023/10/24 01:14:56;346980.00;1.16;598.67;43321.00;0.14;75.63;;;;;16.50;1.00;;;;;;2275909;61;1729;-87
2023/10/24 01:19:52;711986.00;2.37;1228.03;0.00;0.00;0.62;;;;;16.20;2.00;;;;;;2277404;61;1347;-84
2023/10/24 01:22:23;280124.00;0.93;483.75;0.00;0.00;0.62;;;;;16.20;1.80;;;;;;2275736;61;1535;-87
2023/10/24 01:24:51;329956.00;1.10;569.41;81471.00;0.27;141.58;;;;;16.00;3.20;;;;;;2275867;61;2030;-86
2023/10/24 01:27:21;359326.00;1.20;619.89;75327.00;0.25;130.96;;;;;16.20;3.20;;;;;;2275867;61;1442;-86
2023/10/24 01:29:48;443333.00;1.48;764.32;83705.00;0.28;145.44;;;;;16.10;3.10;;;;;;2300854;55;3771;-86
2023/10/24 01:32:15;357679.00;1.19;617.06;91329.00;0.30;158.60;;;;;16.10;3.30;;;;;;2275964;61;1342;-86
2023/10/24 01:34:44;444814.00;1.48;766.86;84147.00;0.28;146.20;;;;;16.20;3.10;;;;;;2275900;61;1564;-84
2023/10/24 01:37:11;403466.00;1.34;695.76;92817.00;0.31;161.17;;;;;16.50;2.70;;;;;;2275884;61;1718;-84
2023/10/24 01:39:40;576521.00;1.92;993.70;120150.00;0.40;208.34;;;;;16.90;1.90;;;;;;2276019;61;1186;-84
2023/10/24 01:42:08;411033.00;1.37;708.77;84104.00;0.28;146.13;;;;;17.10;1.00;;;;;;2275875;61;1573;-85
2023/10/24 01:44:35;425016.00;1.42;732.82;81669.00;0.27;141.92;;;;;17.00;1.00;;;;;;2275647;61;1996;-85
2023/10/24 01:47:02;635711.00;2.12;1095.92;94146.00;0.31;163.47;;;;;17.00;1.00;;;;;;2275948;61;1714;-85
2023/10/24 01:49:30;347135.00;1.16;598.94;89202.00;0.30;154.93;;;;;16.50;1.00;;;;;;2275732;61;1504;-84
2023/10/24 01:52:00;585498.00;1.95;1009.19;80055.00;0.27;139.13;;;;;16.50;2.70;;;;;;2275859;61;1529;-86
2023/10/24 01:54:28;586423.00;1.95;1010.78;136133.00;0.45;235.90;;;;;16.50;1.50;;;;;;2284351;40;3759;-86
2023/10/24 01:56:58;504555.00;1.68;869.67;88272.00;0.29;153.32;;;;;16.20;2.50;;;;;;2282804;40;3611;-87
2023/10/24 01:59:28;1084826.00;3.62;1883.31;85376.00;0.28;148.32;;;;;16.00;3.20;;;;;;2277604;61;1494;-86
2023/10/24 02:01:56;589198.00;1.96;1015.57;88616.00;0.30;153.92;;;;;16.10;3.30;;;;;;2275774;61;1553;-85
2023/10/24 02:04:28;433790.00;1.45;747.90;80126.00;0.27;139.25;;;;;16.30;3.30;;;;;;2275760;61;1536;-88
2023/10/24 02:09:37;732416.00;2.44;1263.50;42714.00;0.14;74.58;;;;;16.40;3.40;;;;;;2304623;41;2186;-86
2023/10/24 02:12:07;632563.00;2.11;1090.48;0.00;0.00;0.62;;;;;16.60;1.90;;;;;;2279761;61;1371;-86
2023/10/24 02:14:37;733054.00;2.44;1264.61;4862.00;0.02;9.05;;;;;16.50;1.40;;;;;;2279867;61;1680;-86
2023/10/24 02:17:07;662724.00;2.21;1142.66;7292.00;0.02;13.26;;;;;16.80;2.60;;;;;;2279920;61;1538;-84
2023/10/24 02:19:37;708734.00;2.36;1222.39;17800.00;0.06;31.46;;;;;17.10;1.80;;;;;;2279812;61;1628;-85
2023/10/24 02:22:08;890660.00;2.97;1539.72;44292.00;0.15;77.31;;;;;17.20;1.00;;;;;;2279913;61;1607;-87
2023/10/24 02:24:43;327154.00;1.09;564.59;58755.00;0.20;102.32;;;;;17.30;1.00;;;;;;2279831;61;1619;-86
2023/10/24 02:27:14;254668.00;0.85;439.98;0.00;0.00;0.62;;;;;17.40;1.00;;;;;;2279866;61;1623;-84
2023/10/24 02:29:44;184664.00;0.62;319.52;20486.00;0.07;36.11;;;;;17.40;1.00;;;;;;2279830;61;2294;-86
2023/10/24 02:32:14;223275.00;0.74;385.98;0.00;0.00;0.62;;;;;17.60;1.00;;;;;;2279774;61;1391;-85
2023/10/24 02:34:46;377667.00;1.26;651.42;9805.00;0.03;17.61;;;;;17.60;1.00;;;;;;2279842;61;1021;-86
2023/10/24 02:37:16;59047.00;0.20;102.83;0.00;0.00;0.62;;;;;17.70;1.00;;;;;;2279836;61;1651;-87
2023/10/24 02:39:45;183295.00;0.61;317.16;0.00;0.00;0.62;;;;;17.80;1.00;;;;;;2279645;61;1811;-88
2023/10/24 02:42:18;764782.00;2.55;1319.77;167074.00;0.56;289.23;;;;;17.80;1.00;;;;;;2279507;61;1648;-86
2023/10/24 02:44:51;74482.00;0.25;129.50;0.00;0.00;0.62;;;;;17.80;1.00;;;;;;2279735;61;2012;-87
2023/10/24 02:47:19;122185.00;0.41;211.85;0.00;0.00;0.62;;;;;17.60;1.00;;;;;;2279870;61;1821;-85
2023/10/24 02:49:50;477149.00;1.59;822.49;24771.00;0.08;43.53;;;;;17.40;1.00;;;;;;2279670;61;1525;-85
2023/10/24 02:52:29;284532.00;0.95;491.33;0.00;0.00;0.62;;;;;17.50;1.00;;;;;;2290433;41;3595;-84
2023/10/24 02:55:00;153188.00;0.51;265.30;0.00;0.00;0.62;;;;;17.50;1.00;;;;;;2275728;61;1578;-84
2023/10/24 02:57:31;55808.00;0.19;97.23;0.00;0.00;0.62;;;;;17.20;1.00;;;;;;2276440;61;1066;-84
2023/10/24 03:00:02;57742.00;0.19;100.57;0.00;0.00;0.62;;;;;17.10;1.00;;;;;;2276463;61;1620;-88
2023/10/24 03:02:30;20575.00;0.07;36.27;0.00;0.00;0.62;;;;;17.30;1.00;;;;;;2276638;61;1609;-87
2023/10/24 03:05:00;50565.00;0.17;88.16;0.00;0.00;0.62;;;;;17.30;1.00;;;;;;2276500;61;2004;-87
2023/10/24 03:07:30;134198.00;0.45;232.57;0.00;0.00;0.62;;;;;17.50;1.00;;;;;;2276697;61;1758;-87
2023/10/24 03:09:58;70996.00;0.24;123.48;0.00;0.00;0.62;;;;;17.30;1.00;;;;;;2276686;61;1488;-90
2023/10/24 03:12:25;199559.00;0.67;345.16;0.00;0.00;0.62;;;;;17.20;1.00;;;;;;2276478;61;1534;-88
2023/10/24 03:14:53;110555.00;0.37;191.79;0.00;0.00;0.62;;;;;17.10;1.00;;;;;;2276686;61;927;-87
2023/10/24 03:17:22;288035.00;0.96;497.35;0.00;0.00;0.62;;;;;17.20;1.00;;;;;;2276687;61;1668;-88
2023/10/24 03:19:56;166989.00;0.56;289.08;0.00;0.00;0.62;;;;;17.30;1.00;;;;;;2276631;61;1462;-88
2023/10/24 03:22:25;289884.00;0.97;500.53;0.00;0.00;0.62;;;;;17.50;1.00;;;;;;2276601;61;1549;-87
2023/10/24 03:24:59;224319.00;0.75;387.77;0.00;0.00;0.62;;;;;17.50;1.00;;;;;;2276540;61;1460;-86
2023/10/24 03:27:30;437493.00;1.46;754.27;36099.00;0.12;63.14;;;;;17.40;1.00;;;;;;2276608;61;1540;-85
2023/10/24 03:30:03;333208.00;1.11;575.00;60707.00;0.20;105.70;;;;;17.50;1.00;;;;;;2276642;61;944;-87
2023/10/24 03:32:30;138374.00;0.46;239.77;0.00;0.00;0.62;;;;;17.40;1.00;;;;;;2276552;61;1591;-86
2023/10/24 03:35:01;232030.00;0.77;401.04;0.00;0.00;0.62;;;;;17.50;1.00;;;;;;2276562;61;1592;-88
2023/10/24 03:37:31;198697.00;0.66;343.68;0.00;0.00;0.62;;;;;17.50;1.00;;;;;;2276662;61;1596;-86
2023/10/24 03:40:02;158334.00;0.53;274.17;0.00;0.00;0.62;;;;;17.60;1.00;;;;;;2276405;61;1022;-87
2023/10/24 03:42:35;155286.00;0.52;268.92;0.00;0.00;0.62;;;;;17.80;1.00;;;;;;2276539;61;1528;-85
2023/10/24 03:45:05;103946.00;0.35;180.38;0.00;0.00;0.62;;;;;18.00;1.00;;;;;;2276586;61;1620;-87
2023/10/24 03:47:32;261438.00;0.87;451.62;0.00;0.00;0.62;;;;;17.80;1.00;;;;;;2276515;61;1520;-88
2023/10/24 03:49:59;220637.00;0.74;381.44;0.00;0.00;0.62;;;;;17.80;1.00;;;;;;2276553;61;1466;-86
2023/10/24 03:52:29;227496.00;0.76;393.24;0.00;0.00;0.62;;;;;17.60;1.00;;;;;;2278030;61;1490;-88
2023/10/24 03:54:59;198697.00;0.66;343.68;0.00;0.00;0.62;;;;;17.50;1.00;;;;;;2280534;61;1647;-88
2023/10/24 03:57:29;174777.00;0.58;302.49;0.00;0.00;0.62;;;;;17.30;1.00;;;;;;2280624;61;1008;-88
2023/10/24 03:59:56;158872.00;0.53;275.10;0.00;0.00;0.62;;;;;17.40;1.00;;;;;;2280612;61;1430;-86
2023/10/24 04:02:28;133121.00;0.44;230.71;0.00;0.00;0.62;;;;;17.40;1.00;;;;;;2280558;61;1557;-87
2023/10/24 04:04:55;191896.00;0.64;331.97;0.00;0.00;0.62;;;;;17.50;1.00;;;;;;2280602;61;1023;-86
2023/10/24 04:07:25;201517.00;0.67;348.53;0.00;0.00;0.62;;;;;17.50;1.00;;;;;;2280305;61;2014;-87
2023/10/24 04:09:56;339202.00;1.13;585.30;84336.00;0.28;146.53;;;;;17.50;1.00;;;;;;2280531;61;1216;-87
2023/10/24 04:12:26;543425.00;1.81;936.63;190395.00;0.63;329.39;;;;;17.40;1.00;;;;;;2280474;61;1687;-86
2023/10/24 04:14:56;468165.00;1.56;807.03;89599.00;0.30;155.62;;;;;17.30;1.00;;;;;;2280528;61;1598;-88
2023/10/24 04:17:24;321376.00;1.07;554.66;100176.00;0.33;173.88;;;;;17.20;1.00;;;;;;2280580;61;1025;-87
2023/10/24 04:19:53;419300.00;1.40;722.99;79664.00;0.27;138.46;;;;;17.20;1.00;;;;;;2280496;61;1546;-87
2023/10/24 04:22:22;511949.00;1.71;882.40;78711.00;0.26;136.81;;;;;17.20;1.00;;;;;;2280412;61;1406;-87
2023/10/24 04:24:50;467298.00;1.56;805.54;85222.00;0.28;148.06;;;;;17.10;1.00;;;;;;2280520;61;1568;-87
2023/10/24 04:27:18;298606.00;1.00;515.52;79953.00;0.27;138.96;;;;;17.20;1.30;;;;;;2280437;61;1940;-88
2023/10/24 04:29:50;519432.00;1.73;895.29;82643.00;0.28;143.60;;;;;17.50;1.00;;;;;;2280489;61;1667;-86
2023/10/24 04:32:17;225599.00;0.75;389.98;85218.00;0.28;148.05;;;;;17.40;1.00;;;;;;2280546;61;1316;-86
2023/10/24 04:34:51;463839.00;1.55;799.59;98014.00;0.33;170.14;;;;;17.20;1.00;;;;;;2280451;61;1452;-87
2023/10/24 04:37:20;169496.00;0.56;293.40;89487.00;0.30;155.42;;;;;17.10;1.00;;;;;;2280362;61;1610;-86
2023/10/24 04:39:54;411869.00;1.37;710.21;82357.00;0.27;143.11;;;;;17.10;1.00;;;;;;2280463;61;1584;-87
2023/10/24 04:42:22;235544.00;0.79;407.09;86046.00;0.29;149.48;;;;;17.00;1.00;;;;;;2280476;61;1353;-86
2023/10/24 04:44:51;378712.00;1.26;653.21;83507.00;0.28;145.09;;;;;16.90;1.30;;;;;;2280384;61;1565;-87
2023/10/24 04:47:19;508532.00;1.70;876.51;82055.00;0.27;142.59;;;;;17.00;1.20;;;;;;2280423;61;1922;-86
2023/10/24 04:49:52;496363.00;1.65;855.56;67506.00;0.23;117.45;;;;;17.10;1.30;;;;;;2280270;61;1531;-87
2023/10/24 04:52:22;336229.00;1.12;580.19;85480.00;0.28;148.50;;;;;17.30;1.00;;;;;;2280293;61;1630;-87
2023/10/24 04:54:49;389477.00;1.30;671.72;79145.00;0.26;137.56;;;;;17.40;1.00;;;;;;2280313;61;1604;-86
2023/10/24 04:57:18;550309.00;1.83;948.49;76199.00;0.25;132.47;;;;;17.50;1.00;;;;;;2286857;55;3771;-85
2023/10/24 04:59:45;441600.00;1.47;761.33;85814.00;0.29;149.08;;;;;17.20;1.00;;;;;;2276365;61;1130;-86
2023/10/24 05:02:14;511526.00;1.71;881.67;94655.00;0.32;164.34;;;;;17.10;1.00;;;;;;2276311;61;2308;-88
2023/10/24 05:04:46;375104.00;1.25;647.01;89761.00;0.30;155.90;;;;;17.30;1.00;;;;;;2276321;61;1563;-87
2023/10/24 05:07:21;1363132.00;4.54;2388.12;143892.00;0.48;249.28;;;;;17.40;1.00;;;;;;2276301;61;1920;-87
2023/10/24 05:09:51;126681016.00;422.27;82367400.00;169852.00;0.57;294.01;;;;;17.20;1.00;;;;;;2276387;61;1582;-87
2023/10/24 05:12:20;1438557.00;4.80;2528.03;197479.00;0.66;341.58;;;;;17.10;1.00;;;;;;2276221;61;1602;-87
2023/10/24 05:14:50;865921.00;2.89;1496.34;91709.00;0.31;159.26;;;;;17.30;1.00;;;;;;2276278;61;1545;-87
2023/10/24 05:17:23;1246838.00;4.16;2175.14;75204.00;0.25;130.75;;;;;17.60;1.00;;;;;;2276272;61;1219;-87
2023/10/24 05:19:59;1006309.00;3.35;1743.65;115751.00;0.39;200.75;;;;;17.60;1.00;;;;;;2276142;61;1728;-88
2023/10/24 05:27:42;683754.00;2.28;1179.08;0.00;0.00;0.62;;;;;17.40;1.00;;;;;;2365789;55;3611;-86
2023/10/24 05:30:16;355306.00;1.18;612.98;35299.00;0.12;61.75;;;;;17.40;1.00;;;;;;2278706;55;3774;-86
2023/10/24 05:32:45;264100.00;0.88;456.20;0.00;0.00;0.62;;;;;17.60;1.00;;;;;;2281209;55;3766;-86
2023/10/24 05:35:23;195408.00;0.65;338.02;13960.00;0.05;24.81;;;;;17.50;1.00;;;;;;2276039;61;1805;-86
2023/10/24 05:37:57;173321.00;0.58;299.99;0.00;0.00;0.62;;;;;17.40;1.00;;;;;;2276120;61;1550;-86
2023/10/24 05:40:32;423726.00;1.41;730.60;23912.00;0.08;42.04;;;;;17.40;1.00;;;;;;2276051;61;1547;-85
2023/10/24 05:43:11;254034.00;0.85;438.89;13020.00;0.04;23.18;;;;;17.30;1.00;;;;;;2276084;61;1427;-87
2023/10/24 05:45:46;36717.00;0.12;64.21;0.00;0.00;0.62;;;;;17.50;1.00;;;;;;2275998;61;1467;-85
2023/10/24 05:48:13;287046.00;0.96;495.65;0.00;0.00;0.62;;;;;17.30;1.00;;;;;;2275975;61;1578;-85
2023/10/24 05:50:41;214704.00;0.72;371.23;0.00;0.00;0.62;;;;;17.40;1.90;;;;;;2276046;61;1646;-83
2023/10/24 05:53:14;96386.00;0.32;167.33;0.00;0.00;0.62;;;;;17.60;1.00;;;;;;2276167;61;1310;-85
2023/10/24 05:55:43;40057.00;0.13;69.99;0.00;0.00;0.62;;;;;17.40;1.00;;;;;;2276111;61;1122;-84
2023/10/24 05:58:19;280516.00;0.94;484.42;0.00;0.00;0.62;;;;;17.60;1.00;;;;;;2275950;61;1478;-84
2023/10/24 06:06:04;661618.00;2.21;1140.74;0.00;0.00;0.62;;;;;17.30;1.00;;;;;;2320080;55;3662;-87
2023/10/24 06:26:19;1303190.00;4.34;2277.94;104741.00;0.35;181.75;;;;;17.20;1.00;;;;;;1500741;56;3632;-88
2023/10/24 06:36:21;580495.00;1.93;1000.55;2415.00;0.01;4.81;;;;;17.20;1.10;;;;;;2335721;40;3469;-89
2023/10/24 07:01:24;689154.00;2.30;1188.44;0.00;0.00;0.62;;;;;17.60;1.00;;;;;;2051409;40;3428;-88
2023/10/24 09:04:46;647758.00;2.16;1116.76;0.00;0.00;0.62;;;;;17.90;2.40;;;;;;2282641;61;1027;-90
2023/10/24 13:07:30;94330.00;0.31;163.78;0.00;0.00;0.62;;;;;18.30;8.80;;;;;;2417163;40;3230;31
2023/10/24 16:24:01;348623.00;1.16;601.49;0.00;0.00;0.62;;;;;18.90;1.00;;;;;;2509887;55;3626;31
2023/10/24 17:13:56;696003.00;2.32;1200.31;0.00;0.00;0.62;;;;;19.20;1.00;;;;;;2503843;55;3597;31
2023/10/24 19:55:57;647513.00;2.16;1116.33;0.00;0.00;0.62;;;;;18.00;1.00;;;;;;2278684;61;989;-92
2023/10/24 19:58:25;150785.00;0.50;261.16;0.00;0.00;0.62;;;;;18.10;1.00;;;;;;2276583;61;1771;-92
2023/10/24 20:00:53;56163.00;0.19;97.84;0.00;0.00;0.62;;;;;17.80;1.00;;;;;;2276288;61;1520;-90
2023/10/24 20:03:24;196270.00;0.65;339.50;37379.00;0.12;65.35;;;;;17.90;1.00;;;;;;2276418;61;1376;-91
2023/10/24 20:59:01;1100710.00;3.67;1911.69;81393.00;0.27;141.44;;;;;18.80;1.00;;;;;;1557510;40;3467;-87
2023/10/24 21:16:50;1097001.00;3.66;1905.06;0.00;0.00;0.62;;;;;18.60;1.00;;;;;;2277620;61;1352;-87
2023/10/24 21:21:58;501455.00;1.67;864.33;0.00;0.00;0.62;;;;;18.60;1.00;;;;;;2277452;61;1435;-87
2023/10/24 21:24:34;421931.00;1.41;727.51;71423.00;0.24;124.22;;;;;18.60;1.00;;;;;;2276113;61;1438;-86
2023/10/24 21:27:04;56974.00;0.19;99.25;0.00;0.00;0.62;;;;;18.60;1.00;;;;;;2285834;55;3693;-89
2023/10/24 21:29:46;191827.00;0.64;331.85;0.00;0.00;0.62;;;;;18.60;1.00;;;;;;2275896;61;1708;-87
2023/10/24 21:32:24;188079.00;0.63;325.40;0.00;0.00;0.62;;;;;18.60;1.00;;;;;;2275997;61;1623;-87
2023/10/24 21:34:58;290849.00;0.97;502.19;0.00;0.00;0.62;;;;;18.60;1.00;;;;;;2275995;61;1431;-88
2023/10/24 21:37:27;362484.00;1.21;625.32;0.00;0.00;0.62;;;;;18.70;1.00;;;;;;2275938;61;1500;-88
2023/10/24 21:40:10;166120.00;0.55;287.58;18156.00;0.06;32.08;;;;;18.60;1.00;;;;;;2276081;61;1113;-87
2023/10/24 21:42:44;61400.00;0.20;106.90;0.00;0.00;0.62;;;;;18.50;1.00;;;;;;2275845;61;1584;-88
2023/10/24 21:45:16;79453.00;0.26;138.09;0.00;0.00;0.62;;;;;18.40;1.00;;;;;;2275946;61;1553;-87
2023/10/24 21:47:52;115886.00;0.39;200.99;0.00;0.00;0.62;;;;;18.20;1.00;;;;;;2275857;61;1911;-88
2023/10/24 21:50:27;198694.00;0.66;343.68;65933.00;0.22;114.73;;;;;18.10;1.00;;;;;;2275959;61;940;-88
2023/10/24 21:53:00;241237.00;0.80;416.88;80691.00;0.27;140.23;;;;;18.00;1.00;;;;;;2275957;61;1352;-87
2023/10/24 21:55:32;465547.00;1.55;802.53;70021.00;0.23;121.80;;;;;18.00;1.00;;;;;;2275945;61;1574;-90
2023/10/24 21:58:00;566159.00;1.89;975.82;91025.00;0.30;158.08;;;;;17.80;1.00;;;;;;2275850;61;1621;-86
2023/10/24 22:00:35;411917.00;1.37;710.29;73405.00;0.24;127.64;;;;;17.50;1.00;;;;;;2275904;61;1738;-86
2023/10/24 22:03:05;617688.00;2.06;1064.77;86193.00;0.29;149.73;;;;;17.60;1.00;;;;;;2275862;61;1376;-88
2023/10/24 22:05:34;836462.00;2.79;1444.79;76244.00;0.25;132.55;;;;;17.80;1.00;;;;;;2275968;61;1624;-88
2023/10/24 22:08:11;781307.00;2.60;1348.54;25604.00;0.09;44.97;;;;;17.20;1.00;;;;;;2275796;61;2002;-88
2023/10/24 22:10:40;585491.00;1.95;1009.17;46446.00;0.15;81.04;;;;;17.10;1.00;;;;;;2275986;61;1082;-86
2023/10/24 22:13:13;465803.00;1.55;802.97;458.00;0.00;1.41;;;;;16.80;1.00;;;;;;2275878;61;1269;-86
2023/10/24 22:15:41;406352.00;1.35;700.73;14576.00;0.05;25.88;;;;;16.90;1.00;;;;;;2275714;61;1582;-86
2023/10/24 22:18:18;527396.00;1.76;909.01;35637.00;0.12;62.34;;;;;17.10;1.00;;;;;;2275829;61;1111;-87
2023/10/24 22:20:49;184547.00;0.62;319.32;0.00;0.00;0.62;;;;;16.70;1.00;;;;;;2275702;61;1485;-87
2023/10/24 22:23:23;251699.00;0.84;434.87;5064.00;0.02;9.40;;;;;16.70;1.40;;;;;;2275508;61;1495;-88
2023/10/24 22:25:57;136760.00;0.46;236.99;0.00;0.00;0.62;;;;;17.00;1.00;;;;;;2275756;61;1505;-87
2023/10/24 22:28:32;91844.00;0.31;159.49;0.00;0.00;0.62;;;;;17.20;1.70;;;;;;2275683;61;2008;-87
2023/10/24 22:31:06;175993.00;0.59;304.59;0.00;0.00;0.62;;;;;17.40;1.00;;;;;;2275845;61;1541;-88
2023/10/24 22:33:35;235709.00;0.79;407.37;0.00;0.00;0.62;;;;;17.40;1.00;;;;;;2275838;61;1553;-87
2023/10/24 22:36:08;173733.00;0.58;300.70;0.00;0.00;0.62;;;;;17.30;1.00;;;;;;2275903;61;1018;-87
2023/10/24 22:38:37;4004.00;0.01;7.56;0.00;0.00;0.62;;;;;16.90;1.00;;;;;;2275882;61;957;-87
2023/10/24 22:41:06;112578.00;0.38;195.28;0.00;0.00;0.62;;;;;17.00;1.00;;;;;;2275781;61;1049;-86
2023/10/24 22:43:39;215070.00;0.72;371.86;0.00;0.00;0.62;;;;;17.30;1.00;;;;;;2275666;61;1566;-86
2023/10/24 22:46:15;218684.00;0.73;378.08;0.00;0.00;0.62;;;;;17.40;1.00;;;;;;2275752;61;1625;-87
2023/10/24 22:48:47;318459.00;1.06;549.65;0.00;0.00;0.62;;;;;17.60;1.00;;;;;;2275727;61;2005;-88
2023/10/24 22:51:20;153644.00;0.51;266.09;0.00;0.00;0.62;;;;;17.40;1.00;;;;;;2275647;61;1632;-87
2023/10/24 22:53:50;272728.00;0.91;471.03;0.00;0.00;0.62;;;;;17.30;1.00;;;;;;2275559;61;1380;-89
2023/10/24 22:56:22;213619.00;0.71;369.36;0.00;0.00;0.62;;;;;17.10;1.00;;;;;;2275488;61;1034;-87
2023/10/24 22:58:54;48846.00;0.16;85.19;0.00;0.00;0.62;;;;;17.20;1.00;;;;;;2275407;61;1631;-88
2023/10/24 23:01:21;179907.00;0.60;311.33;0.00;0.00;0.62;;;;;17.50;1.00;;;;;;2275539;61;1320;-87
2023/10/24 23:03:51;226702.00;0.76;391.87;0.00;0.00;0.62;;;;;17.50;1.00;;;;;;2275704;61;1791;-86
2023/10/24 23:08:46;511067.00;1.70;880.88;0.00;0.00;0.62;;;;;17.40;1.00;;;;;;2277167;61;1964;-88
2023/10/24 23:11:14;287950.00;0.96;497.21;0.00;0.00;0.62;;;;;17.50;1.00;;;;;;2275662;61;1653;-87
2023/10/24 23:13:42;310470.00;1.03;535.92;0.00;0.00;0.62;;;;;17.50;1.00;;;;;;2275978;61;1704;-86
2023/10/24 23:16:15;170031.00;0.57;294.32;0.00;0.00;0.62;;;;;17.60;1.00;;;;;;2276305;61;974;-87
2023/10/24 23:21:21;551014.00;1.84;949.71;80510.00;0.27;139.92;;;;;17.30;1.00;;;;;;2277528;61;1427;-86
2023/10/24 23:23:51;541454.00;1.80;933.23;85916.00;0.29;149.26;;;;;17.30;1.00;;;;;;2276233;61;1591;-86
2023/10/24 23:26:20;366507.00;1.22;632.23;76794.00;0.26;133.50;;;;;17.50;1.00;;;;;;2276120;61;1449;-88
2023/10/24 23:33:58;1304085.00;4.35;2279.58;137458.00;0.46;238.19;;;;;17.40;1.00;;;;;;509567;40;3228;-87
2023/10/24 23:36:31;1296589.00;4.32;2265.86;0.00;0.00;0.62;;;;;17.70;1.00;;;;;;2290783;40;3624;-88
2023/10/24 23:38:58;1004574.00;3.35;1740.57;93022.00;0.31;161.53;;;;;17.80;1.00;;;;;;2287581;55;3723;-86
2023/10/24 23:41:31;635095.00;2.12;1094.86;0.00;0.00;0.62;;;;;17.90;1.00;;;;;;2284735;55;3756;-87
2023/10/24 23:46:33;1439369.00;4.80;2529.54;83147.00;0.28;144.47;;;;;17.90;1.00;;;;;;2292271;55;3653;-86
2023/10/24 23:54:17;222115.00;0.74;383.98;0.00;0.00;0.62;;;;;17.40;1.00;;;;;;1520241;59;2020;-87
2023/10/24 23:56:46;296866.00;0.99;512.53;0.00;0.00;0.62;;;;;17.50;1.00;;;;;;2282809;40;3636;-88
2023/10/24 23:59:28;364509.00;1.22;628.80;0.00;0.00;0.62;;;;;17.40;1.00;;;;;;2276808;61;1468;-87
